Craig G — WDB5332 — position and weather

sailwx.info

Track history (hours):
 
Tides and Currents Weather Stations Pressure Air Temp Water Temp Dewpoint Dewpoint Depression Visibility Wind Speed Wind Dir Waves Ship Positions

Craig G

Owner: San Diego Towing & Marine Services,Inc., San Diego, CA. More information available from US FCC via Universal Licensing System and Coast Guard Vessel Documentation Center.

Last reported at 2014-Nov-21 20:10 UTC. Time now 2014-Nov-28 05:41 UTC.
Position N 32°42' W 117°09'.

Length 28 m; draft 2 m.

Type: Other ship. MMSI: 366908460.

Date/timePositionNaut miles runAvg speedWind from/ knotsBaromVisibWave heightAir tempDewpointWater temp
2014-Nov-21 20:10N 32°42' W 117°09'0 0.0
2014-Nov-20 23:33N 32°42' W 117°09'  
2014-Nov-17 22:21N 32°42' W 117°09'0 0.0
2014-Nov-17 21:33N 32°42' W 117°09'0 0.1
2014-Nov-17 20:33N 32°42' W 117°09'4 3.7
2014-Nov-17 19:33N 32°43' W 117°13'7 7.3
2014-Nov-17 18:33N 32°36' W 117°16'6 5.6
2014-Nov-17 17:33N 32°41' W 117°14'4 4.1
2014-Nov-17 16:33N 32°42' W 117°09'  
2014-Nov-13 17:33N 32°42' W 117°09'0 0.0
2014-Nov-13 16:33N 32°42' W 117°09'2 0.1
2014-Nov-13 00:33N 32°43' W 117°11'1313.0
2014-Nov-12 23:33N 32°39' W 117°26'1716.5
2014-Nov-12 22:33N 32°43' W 117°45'10 2.5
2014-Nov-12 18:33N 32°45' W 117°57'1616.6
2014-Nov-12 17:33N 32°41' W 117°38'1716.8
2014-Nov-12 16:33N 32°38' W 117°18'9 8.7
2014-Nov-12 15:33N 32°42' W 117°09'0 0.0
2014-Nov-12 14:33N 32°42' W 117°09'  
Track history (hours):
 
Tides and Currents Weather Stations Pressure Air Temp Water Temp Dewpoint Dewpoint Depression Visibility Wind Speed Wind Dir Waves Ship Positions

Craig G

Owner: San Diego Towing & Marine Services,Inc., San Diego, CA. More information available from US FCC via Universal Licensing System and Coast Guard Vessel Documentation Center.

Last reported at 2014-Nov-21 20:10 UTC. Time now 2014-Nov-28 05:41 UTC.
Position N 32°42' W 117°09'.

Length 28 m; draft 2 m.

Type: Other ship. MMSI: 366908460.

Date/timePositionNaut miles runAvg speedWind from/ knotsBaromVisibWave heightAir tempDewpointWater temp
2014-Nov-21 20:10N 32°42' W 117°09'0 0.0
2014-Nov-20 23:33N 32°42' W 117°09'  
2014-Nov-17 22:21N 32°42' W 117°09'0 0.0
2014-Nov-17 21:33N 32°42' W 117°09'0 0.1
2014-Nov-17 20:33N 32°42' W 117°09'4 3.7
2014-Nov-17 19:33N 32°43' W 117°13'7 7.3
2014-Nov-17 18:33N 32°36' W 117°16'6 5.6
2014-Nov-17 17:33N 32°41' W 117°14'4 4.1
2014-Nov-17 16:33N 32°42' W 117°09'  
2014-Nov-13 17:33N 32°42' W 117°09'0 0.0
2014-Nov-13 16:33N 32°42' W 117°09'2 0.1
2014-Nov-13 00:33N 32°43' W 117°11'1313.0
2014-Nov-12 23:33N 32°39' W 117°26'1716.5
2014-Nov-12 22:33N 32°43' W 117°45'10 2.5
2014-Nov-12 18:33N 32°45' W 117°57'1616.6
2014-Nov-12 17:33N 32°41' W 117°38'1716.8
2014-Nov-12 16:33N 32°38' W 117°18'9 8.7
2014-Nov-12 15:33N 32°42' W 117°09'0 0.0
2014-Nov-12 14:33N 32°42' W 117°09'  

Dump ship's entire track history